Flight Briefing for CPX254

Departure Arrival
Princess Juliana International Airport (TNCM)
Click to view FAA NOTAMS
Miami International Airport (KMIA)
Click to view FAA NOTAMS
Departure Time Arrival Time
N/A N/A
Aircraft Distance
B767-300BDSF 1064nm
Departure METAR Arrival METAR
TNCM 152028Z 10015KT 070V140 9999 VCSH SCT018 BKN037 25/20 Q1015 NOSIG RMK A2998 ADJ SHWRS SE/NERN QUAD LGT HZ ALSEC KMIA 151953Z 14009KT 10SM SCT032 BKN250 26/19 A2993 RMK AO2 SLP136 T02560189
Suggested Route
PJM B520 STT RTE6 SJU ACONY Y308 FOWEE FLIPR6


View recent IFR Routes data
Notes



Charts and Procedures

Charts for TNCM
No chart available
Charts for KMIA
No chart available

Ventusky Weather